Time;durP1;ratioP1;P1;durP2;ratioP2;P2;SDS_P1;SDS_P2;PMS_P1;PMS_P2;Temp;Humidity;BMP_temperature;BMP_pressure;BME280_temperature;BME280_humidity;BME280_pressure;Samples;Min_cycle;Max_cycle;Signal;HPM_P1;HPM_P2
2022/01/30 00:01:25;;;;;;;6.67;3.92;;;;;;;1.18;71.81;100199.83;1804215;79;21981;-63
2022/01/30 00:04:31;;;;;;;6.55;3.80;;;;;;;1.23;71.78;100196.28;1798836;79;21339;-64
2022/01/30 00:07:37;;;;;;;5.08;3.33;;;;;;;1.26;71.64;100200.08;1803461;79;21398;-63
2022/01/30 00:10:45;;;;;;;5.25;3.22;;;;;;;1.28;71.55;100186.48;1798415;79;21221;-63
2022/01/30 00:13:51;;;;;;;9.65;4.22;;;;;;;1.29;71.37;100183.66;1790935;78;21378;-64
2022/01/30 00:17:10;;;;;;;9.18;4.50;;;;;;;1.30;71.22;100185.36;1777470;80;22030;-63
2022/01/30 00:20:14;;;;;;;7.70;3.95;;;;;;;1.28;70.87;100173.00;1766151;81;21880;-64
2022/01/30 00:23:24;;;;;;;8.30;5.08;;;;;;;1.25;70.72;100165.16;1766010;81;21702;-64
2022/01/30 00:26:29;;;;;;;5.65;3.15;;;;;;;1.24;70.54;100164.28;1765839;81;21714;-65
2022/01/30 00:29:31;;;;;;;6.90;3.95;;;;;;;1.25;70.29;100156.55;1766093;81;21777;-65
2022/01/30 00:32:36;;;;;;;5.87;3.42;;;;;;;1.26;69.93;100148.86;1766038;81;21181;-65
2022/01/30 00:35:44;;;;;;;4.53;2.85;;;;;;;1.25;69.93;100145.77;1766142;81;21350;-64
2022/01/30 00:38:52;;;;;;;4.87;3.37;;;;;;;1.30;69.84;100131.44;1766631;81;21232;-64
2022/01/30 00:41:58;;;;;;;6.40;4.08;;;;;;;1.33;69.53;100134.40;1766985;81;21307;-65
2022/01/30 00:45:07;;;;;;;8.50;5.10;;;;;;;1.32;69.19;100132.66;1767146;81;21279;-64
2022/01/30 00:48:13;;;;;;;8.35;5.25;;;;;;;1.31;68.77;100137.22;1767779;81;21354;-65
2022/01/30 00:51:18;;;;;;;7.78;4.28;;;;;;;1.32;68.37;100133.53;1767021;81;21368;-63
2022/01/30 00:54:24;;;;;;;9.85;5.05;;;;;;;1.33;68.01;100119.56;1766675;81;21430;-65
2022/01/30 00:57:30;;;;;;;12.23;5.80;;;;;;;1.34;67.76;100113.18;1766627;81;21959;-63
2022/01/30 01:00:35;;;;;;;13.48;5.67;;;;;;;1.37;67.66;100106.19;1766683;81;21359;-64
2022/01/30 01:03:44;;;;;;;9.50;5.35;;;;;;;1.39;67.39;100105.10;1767238;80;21249;-64
2022/01/30 01:06:52;;;;;;;8.38;4.72;;;;;;;1.42;67.24;100097.23;1744334;81;21411;-64
2022/01/30 01:10:09;;;;;;;7.15;4.25;;;;;;;1.42;66.89;100095.89;1766734;81;21362;-65
2022/01/30 01:13:21;;;;;;;8.00;5.28;;;;;;;1.36;66.57;100085.09;1775606;79;21354;-64
2022/01/30 01:26:29;;;;;;;7.10;4.00;;;;;;;1.34;66.57;100056.08;1775930;80;21323;-64
2022/01/30 01:29:35;;;;;;;7.42;3.37;;;;;;;1.34;66.24;100045.78;1775019;80;21959;-64
2022/01/30 01:32:42;;;;;;;6.58;2.80;;;;;;;1.30;65.89;100046.52;1775696;80;21378;-64
2022/01/30 01:35:49;;;;;;;4.28;2.55;;;;;;;1.24;65.50;100047.02;1775355;81;21205;-65
2022/01/30 01:38:54;;;;;;;4.90;2.85;;;;;;;1.17;65.56;100037.70;1775343;81;21342;-64
2022/01/30 01:42:00;;;;;;;5.50;2.90;;;;;;;1.11;65.65;100028.78;1775445;80;21232;-65
2022/01/30 01:45:07;;;;;;;4.58;2.52;;;;;;;1.08;65.49;100026.82;1775326;81;21406;-66
2022/01/30 01:48:14;;;;;;;5.20;2.52;;;;;;;1.02;64.88;100014.72;1775101;81;21209;-65
2022/01/30 01:51:20;;;;;;;3.30;2.20;;;;;;;0.97;64.23;100020.97;1775109;80;21335;-65
2022/01/30 01:54:24;;;;;;;4.85;2.45;;;;;;;0.90;63.65;100002.73;1758625;80;21923;-64
2022/01/30 01:57:30;;;;;;;5.08;2.25;;;;;;;0.80;62.54;100002.63;1775080;79;21358;-65
2022/01/30 02:00:50;;;;;;;4.12;2.02;;;;;;;0.75;62.14;99998.09;1684837;82;21413;-65
2022/01/30 02:03:58;;;;;;;6.08;2.05;;;;;;;0.70;61.60;99997.59;1772083;80;21358;-64
2022/01/30 02:08:13;;;;;;;5.72;2.58;;;;;;;0.65;60.99;99986.34;1772045;80;21358;-64
2022/01/30 02:10:21;;;;;;;5.10;2.50;;;;;;;0.59;60.85;99972.02;1768377;80;21209;-65
2022/01/30 02:14:03;;;;;;;5.40;2.20;;;;;;;0.57;60.87;99973.97;1770454;80;22276;-64
2022/01/30 02:24:07;;;;;;;3.35;2.10;;;;;;;0.67;61.34;99953.89;1772087;80;21370;-64
2022/01/30 02:27:12;;;;;;;3.95;1.80;;;;;;;0.75;61.29;99950.95;1772265;81;21209;-66
2022/01/30 02:30:21;;;;;;;3.35;2.00;;;;;;;0.81;61.15;99941.02;1772054;80;21394;-65
2022/01/30 02:33:29;;;;;;;3.10;2.00;;;;;;;0.86;60.90;99932.08;1772531;81;21367;-65
2022/01/30 02:36:34;;;;;;;4.15;2.10;;;;;;;0.90;60.79;99933.55;1772365;81;21228;-65
2022/01/30 02:39:40;;;;;;;4.20;2.10;;;;;;;0.96;60.68;99922.27;1772577;80;21417;-64
2022/01/30 02:42:51;;;;;;;4.35;2.00;;;;;;;1.02;60.54;99917.71;1755351;80;21425;-64
2022/01/30 02:46:11;;;;;;;4.15;2.65;;;;;;;1.05;60.28;99915.23;1772467;81;21418;-65
2022/01/30 02:52:25;;;;;;;5.05;2.60;;;;;;;1.13;59.90;99896.11;1772247;81;21350;-65
2022/01/30 02:55:34;;;;;;;5.08;2.90;;;;;;;1.14;59.85;99877.59;1772551;80;21947;-66
2022/01/30 02:58:41;;;;;;;5.50;2.42;;;;;;;1.13;59.62;99874.55;1772125;80;21334;-64
2022/01/30 03:01:48;;;;;;;5.30;2.85;;;;;;;1.12;59.46;99864.77;1772548;81;21228;-65
2022/01/30 03:04:55;;;;;;;6.40;3.00;;;;;;;1.11;59.25;99864.38;1772247;80;21205;-65
2022/01/30 03:08:01;;;;;;;6.10;2.67;;;;;;;1.11;59.24;99856.81;1772467;81;21370;-65
2022/01/30 03:11:07;;;;;;;5.05;3.02;;;;;;;1.13;59.20;99854.82;1774650;80;21393;-64
2022/01/30 03:14:13;;;;;;;6.17;3.17;;;;;;;1.12;59.04;99848.59;1771515;81;21401;-65
2022/01/30 03:17:20;;;;;;;5.90;2.62;;;;;;;1.14;59.10;99840.37;1773898;80;21853;-65
2022/01/30 03:20:28;;;;;;;7.60;3.67;;;;;;;1.15;59.04;99833.99;1775552;80;21370;-65
2022/01/30 03:23:38;;;;;;;6.67;3.40;;;;;;;1.16;59.11;99833.86;1772639;80;21208;-65
2022/01/30 03:26:46;;;;;;;8.25;3.50;;;;;;;1.18;59.12;99835.94;1772784;80;21386;-64
2022/01/30 03:30:03;;;;;;;7.78;3.58;;;;;;;1.17;59.08;99819.39;1772756;80;21403;-65
2022/01/30 03:33:22;;;;;;;4.17;3.05;;;;;;;1.16;59.24;99823.56;1772630;81;21240;-65
2022/01/30 03:36:27;;;;;;;7.28;3.40;;;;;;;1.10;59.38;99816.87;1772100;81;21338;-65
2022/01/30 03:39:34;;;;;;;5.30;3.52;;;;;;;1.01;59.62;99812.75;1772500;80;21358;-64
2022/01/30 03:42:39;;;;;;;6.70;3.27;;;;;;;0.90;59.86;99816.84;1775768;80;21354;-65
2022/01/30 03:45:45;;;;;;;6.78;3.20;;;;;;;0.77;59.96;99806.73;1772454;80;21287;-65
2022/01/30 03:48:53;;;;;;;7.53;3.22;;;;;;;0.66;60.33;99810.33;1772585;80;21868;-64
2022/01/30 03:52:02;;;;;;;6.67;3.10;;;;;;;0.61;60.70;99809.85;1772722;80;21240;-65
2022/01/30 03:55:07;;;;;;;6.28;3.47;;;;;;;0.56;60.90;99808.02;1746127;81;21445;-64
2022/01/30 03:58:14;;;;;;;6.55;3.20;;;;;;;0.49;61.21;99798.73;1772698;81;21437;-65
2022/01/30 04:01:20;;;;;;;5.97;3.62;;;;;;;0.45;61.48;99791.91;1772569;81;21229;-64
2022/01/30 04:04:26;;;;;;;5.95;3.40;;;;;;;0.39;61.77;99781.65;1771822;80;21339;-65
2022/01/30 04:07:31;;;;;;;6.30;2.90;;;;;;;0.32;62.09;99780.44;1772659;81;21769;-64
2022/01/30 04:10:42;;;;;;;5.28;3.37;;;;;;;0.26;62.35;99777.38;1770714;80;21188;-64
2022/01/30 04:13:48;;;;;;;6.22;3.20;;;;;;;0.18;62.75;99771.30;1772608;80;21354;-65
2022/01/30 04:17:02;;;;;;;7.33;3.02;;;;;;;0.14;63.14;99759.57;1731959;82;21223;-66
2022/01/30 04:20:09;;;;;;;7.35;3.83;;;;;;;0.06;63.48;99760.20;1737047;82;21368;-65
2022/01/30 04:23:15;;;;;;;7.42;3.70;;;;;;;0.02;63.80;99762.76;1737525;82;21740;-65
2022/01/30 04:26:24;;;;;;;10.45;4.28;;;;;;;-0.01;64.04;99758.50;1737120;82;21359;-65
2022/01/30 04:29:36;;;;;;;4.97;3.83;;;;;;;-0.03;64.26;99751.03;1737060;82;21237;-65
2022/01/30 04:32:49;;;;;;;7.95;4.37;;;;;;;-0.08;64.46;99750.55;1737178;82;21366;-65
2022/01/30 04:36:20;;;;;;;10.10;5.50;;;;;;;-0.09;64.71;99743.95;1770003;81;21681;-64
2022/01/30 04:57:19;;;;;;;9.90;5.10;;;;;;;-0.28;65.47;99719.53;1706229;82;21796;-64
2022/01/30 05:00:38;;;;;;;10.15;5.22;;;;;;;-0.27;65.65;99719.40;1695259;84;21424;-64
2022/01/30 05:10:12;;;;;;;7.33;4.83;;;;;;;-0.27;65.65;99697.06;1762717;81;21220;-65
2022/01/30 05:13:23;;;;;;;8.05;4.80;;;;;;;-0.30;65.66;99689.21;1761815;81;22048;-65
2022/01/30 05:16:43;;;;;;;8.53;4.65;;;;;;;-0.30;65.75;99681.14;1749433;80;21358;-64
2022/01/30 05:19:51;;;;;;;6.75;4.08;;;;;;;-0.29;65.68;99676.16;1760619;80;21288;-65
2022/01/30 05:23:13;;;;;;;6.45;4.65;;;;;;;-0.31;65.60;99666.88;1777470;80;21204;-65
2022/01/30 05:26:20;;;;;;;7.97;4.70;;;;;;;-0.31;65.52;99663.31;1768187;80;21503;-65
2022/01/30 05:29:41;;;;;;;7.10;4.78;;;;;;;-0.30;65.43;99656.95;1715631;82;21698;-64
2022/01/30 05:32:50;;;;;;;9.18;5.03;;;;;;;-0.28;65.33;99654.52;1740288;82;21195;-64
2022/01/30 05:36:03;;;;;;;9.80;4.75;;;;;;;-0.24;65.21;99649.75;1690403;82;21277;-65
2022/01/30 05:39:26;;;;;;;6.75;4.85;;;;;;;-0.17;65.11;99644.22;1741120;82;21224;-66
2022/01/30 05:42:37;;;;;;;8.10;4.50;;;;;;;-0.12;64.91;99632.59;1723337;82;21360;-65
2022/01/30 05:46:05;;;;;;;7.92;4.60;;;;;;;-0.06;64.76;99626.22;1741920;81;21190;-65
2022/01/30 05:49:12;;;;;;;7.45;4.40;;;;;;;0.05;64.56;99629.86;1740927;82;21261;-65
2022/01/30 05:52:28;;;;;;;6.83;4.55;;;;;;;0.15;64.36;99623.56;1730265;81;21812;-64
2022/01/30 05:55:36;;;;;;;8.58;4.60;;;;;;;0.24;64.00;99609.84;1740457;82;21333;-66
2022/01/30 05:58:42;;;;;;;8.95;4.40;;;;;;;0.32;63.78;99604.66;1740746;82;21329;-66
2022/01/30 06:01:54;;;;;;;8.53;4.73;;;;;;;0.44;63.57;99603.12;1741533;82;21369;-64
2022/01/30 06:05:00;;;;;;;8.48;5.58;;;;;;;0.55;63.33;99600.84;1742436;82;21226;-64
2022/01/30 06:08:16;;;;;;;7.20;4.95;;;;;;;0.63;63.16;99599.20;1739327;82;21206;-65
2022/01/30 06:11:20;;;;;;;15.08;8.25;;;;;;;0.72;62.87;99583.58;1741556;82;21360;-64
2022/01/30 06:14:27;;;;;;;29.35;14.35;;;;;;;0.80;62.66;99581.08;1741206;82;21384;-65
2022/01/30 06:17:35;;;;;;;12.70;8.08;;;;;;;0.86;62.43;99574.28;1741264;81;21763;-64
2022/01/30 06:20:45;;;;;;;12.63;7.87;;;;;;;0.89;62.24;99566.80;1741192;81;21234;-65
2022/01/30 06:24:09;;;;;;;15.88;8.50;;;;;;;0.86;62.17;99550.91;1740980;82;21372;-64
2022/01/30 06:27:31;;;;;;;11.17;6.07;;;;;;;0.82;62.44;99534.67;1741587;82;21167;-64
2022/01/30 06:30:54;;;;;;;;;;;;;;;0.82;62.44;99534.67;1742801;82;21218;-65
2022/01/30 06:34:08;;;;;;;6.78;4.03;;;;;;;0.76;62.61;99529.80;1741442;82;20602;-65
2022/01/30 06:37:28;;;;;;;8.03;4.30;;;;;;;0.73;63.00;99515.26;1739660;82;21399;-64
2022/01/30 06:40:52;;;;;;;8.33;4.47;;;;;;;0.72;63.13;99513.56;1740975;82;21352;-65
2022/01/30 06:43:57;;;;;;;10.28;6.20;;;;;;;0.69;63.24;99488.26;1759646;78;21229;-65
2022/01/30 06:47:05;;;;;;;11.05;6.28;;;;;;;0.63;63.40;99482.56;1752993;80;21300;-65
2022/01/30 06:50:28;;;;;;;14.73;8.48;;;;;;;0.63;63.50;99472.65;1771742;80;21588;-65
2022/01/30 06:53:48;;;;;;;11.45;8.73;;;;;;;0.63;63.51;99471.79;1771083;81;21351;-66
2022/01/30 06:57:12;;;;;;;;;;;;;;;0.58;63.43;99461.43;1774130;81;21198;-64
2022/01/30 07:00:35;;;;;;;13.98;7.60;;;;;;;0.61;63.71;99459.81;1758132;81;20237;-65
2022/01/30 07:04:01;;;;;;;10.45;6.25;;;;;;;0.64;63.63;99460.88;1740465;82;21169;-65
2022/01/30 07:07:22;;;;;;;10.25;5.12;;;;;;;0.67;63.57;99460.61;1740378;82;21720;-64
2022/01/30 07:10:28;;;;;;;12.47;7.42;;;;;;;0.71;63.55;99449.94;1759823;81;21371;-65
2022/01/30 07:13:35;;;;;;;12.35;7.33;;;;;;;0.78;63.52;99451.08;1771867;80;21386;-65
2022/01/30 07:16:44;;;;;;;8.25;5.37;;;;;;;0.89;63.39;99452.80;1772733;80;21342;-66
2022/01/30 07:19:49;;;;;;;9.58;4.55;;;;;;;1.00;63.14;99448.16;1770920;81;21224;-66
2022/01/30 07:22:54;;;;;;;8.58;4.67;;;;;;;1.10;63.01;99440.95;1766636;80;21300;-65
2022/01/30 07:26:03;;;;;;;7.78;4.05;;;;;;;1.16;62.46;99435.00;1771056;80;21324;-65
2022/01/30 07:29:09;;;;;;;7.50;4.80;;;;;;;1.20;62.19;99433.73;1770510;80;21629;-66
2022/01/30 07:32:16;;;;;;;8.50;4.70;;;;;;;1.26;61.74;99434.52;1771332;80;21780;-65
2022/01/30 07:35:22;;;;;;;8.25;4.70;;;;;;;1.29;61.47;99434.23;1772160;80;21189;-65
2022/01/30 07:38:28;;;;;;;6.85;4.15;;;;;;;1.31;61.26;99436.30;1762064;80;21181;-65
2022/01/30 07:41:32;;;;;;;9.08;4.47;;;;;;;1.35;61.05;99432.80;1768694;80;21244;-65
2022/01/30 07:44:40;;;;;;;11.10;4.17;;;;;;;1.42;60.97;99426.73;1772098;79;21232;-66
2022/01/30 07:47:46;;;;;;;8.58;4.22;;;;;;;1.46;60.79;99424.09;1763744;80;21236;-65
2022/01/30 07:50:53;;;;;;;8.08;3.98;;;;;;;1.53;60.49;99418.50;1772253;80;21712;-65
2022/01/30 07:53:58;;;;;;;8.08;4.70;;;;;;;1.58;60.28;99409.11;1777377;80;21331;-65
2022/01/30 07:57:03;;;;;;;9.08;4.62;;;;;;;1.66;60.12;99407.90;1778892;80;21347;-65
2022/01/30 08:00:09;;;;;;;9.90;4.50;;;;;;;1.73;59.89;99400.95;1772824;80;21445;-65
2022/01/30 08:03:15;;;;;;;7.33;4.25;;;;;;;1.80;59.53;99397.52;1766838;80;21240;-66
2022/01/30 08:06:22;;;;;;;9.00;4.08;;;;;;;1.81;59.39;99382.20;1768890;80;21184;-65
2022/01/30 08:09:26;;;;;;;6.58;4.00;;;;;;;1.85;59.06;99377.70;1769334;80;21212;-65
2022/01/30 08:12:35;;;;;;;7.45;4.20;;;;;;;1.84;58.86;99373.28;1769290;80;21236;-65
2022/01/30 08:15:40;;;;;;;9.98;4.60;;;;;;;1.89;58.88;99373.70;1768591;81;21200;-66
2022/01/30 08:18:46;;;;;;;10.35;4.60;;;;;;;1.95;58.67;99359.63;1769324;80;21194;-65
2022/01/30 08:21:50;;;;;;;9.80;4.45;;;;;;;2.06;58.54;99362.66;1762988;81;21220;-65
2022/01/30 08:24:57;;;;;;;7.62;4.55;;;;;;;2.17;58.24;99369.23;1770153;80;21555;-66
2022/01/30 08:28:04;;;;;;;11.33;5.45;;;;;;;2.22;58.00;99352.09;1770570;80;21233;-65
2022/01/30 08:31:10;;;;;;;6.65;4.42;;;;;;;2.24;58.09;99348.23;1770762;80;21808;-64
2022/01/30 08:34:18;;;;;;;10.13;4.80;;;;;;;2.30;58.08;99336.00;1771154;80;21856;-65
2022/01/30 08:37:23;;;;;;;8.60;4.40;;;;;;;2.33;57.83;99332.48;1769751;80;21200;-66
2022/01/30 08:40:29;;;;;;;10.18;4.53;;;;;;;2.34;57.84;99330.64;1770328;81;21279;-65
2022/01/30 08:43:37;;;;;;;8.18;4.37;;;;;;;2.34;57.70;99329.29;1770601;80;21327;-66
2022/01/30 08:46:43;;;;;;;9.73;4.75;;;;;;;2.38;57.58;99338.81;1769816;78;21181;-66
2022/01/30 08:49:49;;;;;;;9.83;4.75;;;;;;;2.40;57.55;99323.28;1769794;80;21276;-64
2022/01/30 08:52:53;;;;;;;7.70;4.40;;;;;;;2.46;57.45;99318.62;1770286;81;21224;-66
2022/01/30 08:55:59;;;;;;;7.17;4.45;;;;;;;2.48;57.33;99309.88;1770571;80;21188;-65
2022/01/30 08:59:04;;;;;;;10.65;4.83;;;;;;;2.44;57.49;99306.63;1770076;80;21209;-65
2022/01/30 09:02:10;;;;;;;11.05;4.55;;;;;;;2.45;57.78;99300.73;1769954;80;21182;-65
2022/01/30 09:05:18;;;;;;;8.03;4.40;;;;;;;2.47;57.74;99300.95;1762371;80;21225;-65
2022/01/30 09:08:23;;;;;;;7.05;4.03;;;;;;;2.49;57.94;99299.45;1770277;80;21728;-65
2022/01/30 09:11:29;;;;;;;8.13;4.70;;;;;;;2.61;58.09;99289.63;1770173;80;21369;-65
2022/01/30 09:14:36;;;;;;;8.70;4.62;;;;;;;2.64;58.17;99288.46;1770336;80;21208;-65
2022/01/30 09:17:41;;;;;;;11.25;4.95;;;;;;;2.70;58.33;99282.44;1769905;80;21181;-65
2022/01/30 09:20:50;;;;;;;9.58;4.95;;;;;;;2.68;58.33;99272.31;1770421;80;21352;-65
2022/01/30 09:23:56;;;;;;;7.28;4.72;;;;;;;2.70;58.42;99263.04;1771109;80;21205;-65
2022/01/30 09:27:01;;;;;;;7.35;4.80;;;;;;;2.74;58.30;99257.66;1771206;80;21173;-64
2022/01/30 09:30:10;;;;;;;8.63;4.90;;;;;;;2.70;57.96;99243.27;1762046;81;21382;-64
2022/01/30 09:33:15;;;;;;;10.98;5.40;;;;;;;2.70;58.01;99244.13;1770684;80;21292;-65
2022/01/30 09:36:23;;;;;;;11.83;5.40;;;;;;;2.71;57.95;99226.08;1750154;81;21734;-63
2022/01/30 09:39:29;;;;;;;11.30;4.85;;;;;;;2.72;57.93;99231.32;1737460;82;21370;-65
2022/01/30 09:42:35;;;;;;;8.63;5.22;;;;;;;2.69;57.77;99217.27;1738192;82;21702;-64
2022/01/30 09:45:41;;;;;;;7.97;5.05;;;;;;;2.66;57.63;99203.55;1737731;82;21214;-65
2022/01/30 09:48:47;;;;;;;9.43;4.80;;;;;;;2.65;57.64;99198.30;1705876;84;21359;-65
2022/01/30 09:51:53;;;;;;;8.75;4.80;;;;;;;2.70;57.80;99189.23;1724535;82;21204;-65
2022/01/30 09:54:59;;;;;;;7.55;5.08;;;;;;;2.70;58.08;99194.64;1700659;84;21431;-64
2022/01/30 09:58:05;;;;;;;12.35;5.47;;;;;;;2.70;58.47;99196.84;1732152;82;21263;-64
2022/01/30 10:01:11;;;;;;;11.75;5.62;;;;;;;2.69;59.20;99187.55;1706848;84;21338;-65
2022/01/30 10:04:18;;;;;;;7.90;5.95;;;;;;;2.65;59.97;99194.25;1706643;84;22057;-65
2022/01/30 10:07:26;;;;;;;7.85;4.78;;;;;;;2.53;60.81;99173.89;1706851;84;21820;-64
2022/01/30 10:10:34;;;;;;;11.25;5.75;;;;;;;2.43;61.61;99163.66;1706719;84;21204;-65
2022/01/30 10:13:39;;;;;;;9.65;5.90;;;;;;;2.38;62.43;99148.45;1706839;84;21362;-65
2022/01/30 10:16:46;;;;;;;8.33;5.55;;;;;;;2.28;63.16;99136.38;1706952;83;21373;-65
2022/01/30 10:19:52;;;;;;;10.18;5.97;;;;;;;2.44;63.80;99131.63;1721234;82;21215;-64
2022/01/30 10:23:01;;;;;;;8.48;6.20;;;;;;;2.61;63.72;99115.41;1736145;82;21204;-65
2022/01/30 10:26:12;;;;;;;11.12;5.85;;;;;;;2.62;63.71;99120.28;1735737;82;21859;-65
2022/01/30 10:29:41;;;;;;;9.38;6.45;;;;;;;2.51;63.91;99103.84;1715830;82;21227;-65
2022/01/30 10:32:46;;;;;;;12.10;6.05;;;;;;;2.34;64.35;99097.10;1699996;84;21192;-65
2022/01/30 10:36:03;;;;;;;10.45;7.28;;;;;;;2.17;64.75;99088.52;1727842;82;21214;-64
2022/01/30 10:39:18;;;;;;;13.95;7.60;;;;;;;2.02;65.18;99086.00;1736052;82;21251;-67
2022/01/30 10:42:46;;;;;;;11.83;6.72;;;;;;;1.99;65.73;99079.07;1716447;82;21231;-64
2022/01/30 10:45:53;;;;;;;14.20;8.03;;;;;;;2.00;65.93;99079.41;1707575;83;21239;-66
2022/01/30 10:49:09;;;;;;;13.38;7.53;;;;;;;1.94;66.11;99073.28;1713343;81;21802;-64
2022/01/30 10:52:20;;;;;;;11.40;7.08;;;;;;;1.91;66.55;99065.98;1706391;83;21210;-65
2022/01/30 10:55:27;;;;;;;12.00;6.90;;;;;;;1.88;66.71;99051.45;1707064;82;21226;-64
2022/01/30 10:58:32;;;;;;;10.72;6.67;;;;;;;1.77;67.02;99044.94;1706958;82;21210;-64
2022/01/30 11:01:37;;;;;;;11.35;6.50;;;;;;;1.69;67.37;99048.41;1666005;85;21354;-64
2022/01/30 11:04:44;;;;;;;10.85;5.83;;;;;;;1.60;67.61;99039.90;1666230;85;21330;-64
2022/01/30 11:07:52;;;;;;;13.78;6.25;;;;;;;1.54;68.06;99053.47;1756070;81;21188;-65
2022/01/30 11:11:30;;;;;;;11.10;6.47;;;;;;;1.48;68.31;99037.91;1767065;81;21723;-64
2022/01/30 11:14:36;;;;;;;13.78;6.62;;;;;;;1.42;68.56;99028.23;1767335;80;21255;-64
2022/01/30 11:17:36;;;;;;;10.25;6.25;;;;;;;1.45;68.88;99037.36;1766745;80;21204;-65
2022/01/30 11:20:42;;;;;;;11.55;6.53;;;;;;;1.49;68.94;99027.46;1720524;82;21392;-64
2022/01/30 11:23:47;;;;;;;10.08;5.50;;;;;;;1.45;68.83;99024.73;1761976;81;22232;-65
2022/01/30 11:26:54;;;;;;;10.60;5.90;;;;;;;1.37;68.90;99024.64;1729661;81;21196;-65
2022/01/30 11:30:00;;;;;;;10.38;6.45;;;;;;;1.37;69.04;99017.05;1742843;81;21298;-64
2022/01/30 11:33:05;;;;;;;10.53;6.75;;;;;;;1.40;69.12;99008.16;1749027;81;21279;-64
2022/01/30 11:36:14;;;;;;;9.13;6.45;;;;;;;1.41;69.09;99005.80;1737418;81;21217;-64
2022/01/30 11:39:26;;;;;;;12.10;6.35;;;;;;;1.42;69.00;98996.73;1720751;82;21867;-64
2022/01/30 11:42:36;;;;;;;9.65;6.83;;;;;;;1.44;68.92;99005.50;1736825;82;21177;-64
2022/01/30 11:45:43;;;;;;;10.50;5.95;;;;;;;1.47;68.86;98989.53;1737511;82;21207;-65
2022/01/30 11:48:49;;;;;;;8.75;6.60;;;;;;;1.44;68.92;98992.02;1736939;80;21407;-64
2022/01/30 11:52:00;;;;;;;9.75;5.97;;;;;;;1.50;69.09;98994.13;1740054;82;21343;-65
2022/01/30 11:55:06;;;;;;;9.83;5.85;;;;;;;1.59;69.11;98977.52;1740797;82;21224;-64
2022/01/30 11:58:14;;;;;;;9.73;6.10;;;;;;;1.58;69.02;98981.22;1740537;82;21415;-66
2022/01/30 12:01:37;;;;;;;9.73;6.15;;;;;;;1.55;69.09;98978.31;1740778;82;21849;-65
2022/01/30 12:05:03;;;;;;;8.60;5.30;;;;;;;1.54;69.25;98975.77;1740579;82;21732;-64
2022/01/30 12:08:09;;;;;;;8.20;5.42;;;;;;;1.61;69.34;98978.70;1741041;82;21876;-64
2022/01/30 12:11:49;;;;;;;9.63;5.58;;;;;;;1.61;69.28;98976.87;1741006;82;21347;-64
2022/01/30 12:14:56;;;;;;;9.55;5.47;;;;;;;1.61;69.37;98972.83;1740700;82;21227;-64
2022/01/30 12:18:03;;;;;;;11.83;5.90;;;;;;;1.63;69.45;98974.02;1740856;81;21217;-65
2022/01/30 12:21:13;;;;;;;7.72;5.15;;;;;;;1.66;69.29;98973.70;1740836;82;21185;-65
2022/01/30 12:24:36;;;;;;;10.58;5.92;;;;;;;1.65;69.25;98970.67;1740686;82;21215;-65
2022/01/30 12:28:02;;;;;;;10.98;6.30;;;;;;;1.66;69.26;98961.56;1740857;82;21213;-65
2022/01/30 12:31:08;;;;;;;9.25;5.50;;;;;;;1.74;69.35;98961.64;1740770;82;21351;-64
2022/01/30 12:34:25;;;;;;;9.73;6.12;;;;;;;1.83;69.20;98968.80;1742278;82;21228;-65
2022/01/30 12:37:39;;;;;;;10.05;6.25;;;;;;;1.85;68.99;98970.84;1740287;82;21386;-65
2022/01/30 12:40:46;;;;;;;10.00;5.17;;;;;;;1.86;68.91;98969.83;1740331;82;21212;-67
2022/01/30 12:43:52;;;;;;;9.50;6.55;;;;;;;1.87;68.94;98966.15;1734100;82;21868;-64
2022/01/30 12:46:59;;;;;;;10.48;6.22;;;;;;;1.85;69.02;98961.41;1740413;82;21213;-65
2022/01/30 12:50:05;;;;;;;9.08;6.25;;;;;;;1.83;69.30;98955.30;1759166;80;21930;-65
2022/01/30 12:53:11;;;;;;;10.35;6.50;;;;;;;1.88;69.62;98959.25;1739659;82;21205;-65
2022/01/30 12:56:15;;;;;;;9.30;6.92;;;;;;;1.91;69.83;98960.28;1733231;82;21217;-65
2022/01/30 12:59:25;;;;;;;10.40;5.78;;;;;;;1.95;70.09;98950.03;1740063;82;21788;-65
2022/01/30 13:02:34;;;;;;;10.32;6.53;;;;;;;1.99;70.23;98954.95;1739679;82;21733;-65
2022/01/30 13:05:40;;;;;;;8.43;6.03;;;;;;;2.01;70.35;98946.20;1739938;82;21762;-64
2022/01/30 13:09:00;;;;;;;8.98;5.47;;;;;;;2.00;70.65;98939.63;1759022;80;21192;-65
2022/01/30 13:12:07;;;;;;;10.75;7.65;;;;;;;1.93;71.01;98948.84;1734582;82;22063;-65
2022/01/30 13:15:25;;;;;;;10.23;6.50;;;;;;;1.88;71.48;98940.85;1734478;82;21219;-64
2022/01/30 13:18:30;;;;;;;10.38;7.37;;;;;;;1.83;71.87;98936.42;1735143;82;21177;-65
2022/01/30 13:21:38;;;;;;;9.45;6.60;;;;;;;1.76;72.36;98929.45;1734600;82;21200;-64
2022/01/30 13:24:46;;;;;;;8.65;6.12;;;;;;;1.77;72.78;98925.77;1734503;82;21200;-65
2022/01/30 13:27:55;;;;;;;10.10;5.78;;;;;;;1.79;73.00;98918.87;1735391;82;21839;-65
2022/01/30 13:31:04;;;;;;;12.03;6.72;;;;;;;1.73;73.33;98915.45;1735431;82;21396;-65
2022/01/30 13:34:28;;;;;;;14.18;8.10;;;;;;;1.79;73.68;98920.22;1735548;82;21243;-65
2022/01/30 13:37:38;;;;;;;12.33;7.90;;;;;;;1.78;73.98;98906.38;1735003;82;21200;-65
2022/01/30 13:40:48;;;;;;;10.78;6.60;;;;;;;1.77;74.19;98912.29;1735651;82;21216;-64
2022/01/30 13:44:10;;;;;;;13.68;7.95;;;;;;;1.76;74.44;98915.14;1706201;83;21228;-65
2022/01/30 13:47:10;;;;;;;10.90;7.00;;;;;;;1.74;74.73;98896.91;1701636;83;21201;-65
2022/01/30 13:50:24;;;;;;;10.48;7.12;;;;;;;1.76;74.98;98901.13;1738978;82;21189;-65
2022/01/30 13:53:34;;;;;;;10.63;7.92;;;;;;;1.76;75.15;98907.88;1739770;82;22030;-65
2022/01/30 13:56:39;;;;;;;12.47;7.87;;;;;;;1.74;75.39;98904.52;1739975;82;21283;-64
2022/01/30 13:59:46;;;;;;;11.43;7.80;;;;;;;1.73;75.64;98897.41;1739659;82;21233;-65
2022/01/30 14:03:05;;;;;;;12.20;7.53;;;;;;;1.72;75.79;98897.07;1742129;81;21194;-65
2022/01/30 14:06:23;;;;;;;12.58;7.50;;;;;;;1.69;76.02;98895.19;1738937;82;21987;-65
2022/01/30 14:09:30;;;;;;;11.80;7.95;;;;;;;1.65;76.33;98893.81;1757396;81;21223;-65
2022/01/30 14:12:44;;;;;;;13.55;8.03;;;;;;;1.65;76.64;98895.16;1740474;80;21778;-64
2022/01/30 14:16:19;;;;;;;11.43;7.15;;;;;;;1.62;76.88;98889.56;1738818;81;21761;-65
2022/01/30 14:19:40;;;;;;;11.53;7.75;;;;;;;1.59;77.10;98887.19;1749953;81;22468;-65
2022/01/30 14:22:44;;;;;;;10.30;6.75;;;;;;;1.59;77.36;98887.19;1739243;82;21313;-65
2022/01/30 14:25:53;;;;;;;9.75;6.90;;;;;;;1.58;77.54;98880.59;1739708;82;21237;-65
2022/01/30 14:29:22;;;;;;;10.72;7.10;;;;;;;1.58;77.80;98878.77;1739176;82;21736;-66
2022/01/30 14:32:27;;;;;;;10.60;7.55;;;;;;;1.54;77.96;98884.10;1738880;82;21704;-64
2022/01/30 14:35:36;;;;;;;9.23;7.35;;;;;;;1.50;78.27;98878.20;1738200;82;21225;-64
2022/01/30 14:38:45;;;;;;;9.93;7.03;;;;;;;1.49;78.46;98885.92;1746518;81;21757;-66
2022/01/30 14:41:51;;;;;;;13.48;8.48;;;;;;;1.46;78.62;98885.38;1768159;80;21177;-65
2022/01/30 14:44:56;;;;;;;11.18;8.10;;;;;;;1.44;78.97;98890.92;1768638;80;21217;-64
2022/01/30 14:48:02;;;;;;;14.35;9.45;;;;;;;1.46;79.18;98892.12;1769146;80;21173;-64
2022/01/30 14:51:09;;;;;;;13.55;8.70;;;;;;;1.51;79.42;98881.72;1769348;81;21208;-65
2022/01/30 14:54:15;;;;;;;12.73;8.68;;;;;;;1.54;79.46;98882.27;1769456;78;21173;-66
2022/01/30 14:57:22;;;;;;;12.65;8.78;;;;;;;1.58;79.47;98880.59;1753705;81;21200;-65
2022/01/30 15:00:29;;;;;;;13.00;8.45;;;;;;;1.61;79.38;98880.28;1739016;82;21189;-66
2022/01/30 15:03:34;;;;;;;14.03;8.30;;;;;;;1.64;79.35;98876.78;1740105;82;21212;-66
2022/01/30 15:06:40;;;;;;;13.28;9.45;;;;;;;1.67;79.35;98877.81;1739958;82;21197;-65
2022/01/30 15:09:46;;;;;;;15.13;9.63;;;;;;;1.70;79.19;98871.28;1740297;82;21208;-65
2022/01/30 15:12:52;;;;;;;13.35;8.58;;;;;;;1.72;79.17;98879.55;1740430;82;21896;-64
2022/01/30 15:16:06;;;;;;;10.48;8.50;;;;;;;1.77;79.10;98883.11;1740302;82;21809;-64
2022/01/30 15:19:06;;;;;;;11.40;8.05;;;;;;;1.77;78.93;98880.41;1740011;82;21754;-65
2022/01/30 15:22:11;;;;;;;11.00;8.60;;;;;;;1.76;78.82;98892.22;1751377;81;21179;-66
2022/01/30 15:25:18;;;;;;;12.25;9.63;;;;;;;1.74;78.81;98890.17;1739945;82;21379;-65
2022/01/30 15:28:24;;;;;;;12.28;8.60;;;;;;;1.75;78.85;98896.76;1746204;80;21382;-64
2022/01/30 15:31:30;;;;;;;11.08;8.10;;;;;;;1.78;78.93;98896.44;1740190;82;21820;-66
2022/01/30 15:34:35;;;;;;;12.73;8.85;;;;;;;1.81;78.82;98889.91;1740906;82;21209;-64
2022/01/30 15:37:40;;;;;;;14.70;8.95;;;;;;;1.82;78.82;98880.80;1714250;82;21320;-65
2022/01/30 15:40:46;;;;;;;13.18;8.80;;;;;;;1.82;78.66;98891.09;1739674;82;21209;-65